Time;durP1;ratioP1;P1;durP2;ratioP2;P2;SDS_P1;SDS_P2;PMS_P1;PMS_P2;Temp;Humidity;BMP_temperature;BMP_pressure;BME280_temperature;BME280_humidity;BME280_pressure;Samples;Min_cycle;Max_cycle;Signal;HPM_P1;HPM_P2
2021/05/25 00:01:05;;;;;;;0.90;0.50;;;;;;;10.62;100.00;98755.09;10496522;28;20206;-76
2021/05/25 00:06:24;;;;;;;0.90;0.50;;;;;;;10.58;100.00;98763.34;10495586;28;20171;-76
2021/05/25 00:11:43;;;;;;;0.90;0.50;;;;;;;10.44;100.00;98754.47;10497832;28;20230;-76
2021/05/25 00:17:02;;;;;;;1.30;0.60;;;;;;;10.43;100.00;98742.66;10497577;28;20167;-77
2021/05/25 00:22:21;;;;;;;0.90;0.50;;;;;;;10.36;100.00;98761.22;10494709;28;20218;-77
2021/05/25 00:27:40;;;;;;;1.20;1.00;;;;;;;10.35;100.00;98735.66;10497160;28;20599;-75
2021/05/25 00:32:59;;;;;;;1.20;0.50;;;;;;;10.36;100.00;98755.72;10496341;28;20617;-75
2021/05/25 00:38:18;;;;;;;0.90;0.53;;;;;;;10.38;100.00;98734.88;10495892;28;20210;-77
2021/05/25 00:43:37;;;;;;;1.20;0.60;;;;;;;10.31;100.00;98741.63;10496142;28;20179;-73
2021/05/25 00:48:56;;;;;;;0.80;0.50;;;;;;;10.25;100.00;98757.75;10494877;28;20183;-73
2021/05/25 00:54:15;;;;;;;1.00;0.60;;;;;;;10.12;100.00;98766.88;10498004;28;20182;-74
2021/05/25 00:59:34;;;;;;;1.43;0.83;;;;;;;10.11;100.00;98777.09;10503918;28;20198;-73
2021/05/25 01:04:54;;;;;;;0.90;0.50;;;;;;;10.06;100.00;98785.00;10503477;28;20174;-77
2021/05/25 01:10:15;;;;;;;0.90;0.50;;;;;;;9.90;100.00;98774.44;10504664;28;20171;-75
2021/05/25 01:15:35;;;;;;;1.20;0.57;;;;;;;9.82;100.00;98780.41;10504272;28;20191;-75
2021/05/25 01:20:54;;;;;;;0.80;0.40;;;;;;;9.70;100.00;98784.41;10502339;28;20760;-76
2021/05/25 01:26:15;;;;;;;1.50;1.00;;;;;;;9.64;100.00;98779.72;10503911;28;20210;-75
2021/05/25 01:31:34;;;;;;;0.80;0.50;;;;;;;9.49;100.00;98783.72;10503823;28;20629;-77
2021/05/25 01:36:53;;;;;;;1.00;0.60;;;;;;;9.39;100.00;98786.50;10502437;28;20632;-77
2021/05/25 01:42:12;;;;;;;0.90;0.50;;;;;;;9.37;100.00;98786.13;10502865;28;20564;-77
2021/05/25 01:47:31;;;;;;;0.90;0.60;;;;;;;9.26;100.00;98786.16;10502292;28;20179;-77
2021/05/25 01:52:51;;;;;;;0.90;0.50;;;;;;;9.15;100.00;98799.13;10501586;28;20647;-76
2021/05/25 01:58:33;;;;;;;1.00;0.70;;;;;;;9.04;100.00;98808.56;10501789;28;20212;-76
2021/05/25 02:03:52;;;;;;;1.20;0.80;;;;;;;9.02;100.00;98813.66;10499934;28;20530;-77
2021/05/25 02:09:11;;;;;;;2.60;1.00;;;;;;;8.96;100.00;98798.78;10502500;28;20174;-72
2021/05/25 02:14:30;;;;;;;0.90;0.60;;;;;;;8.91;100.00;98805.44;10501247;28;20222;-77
2021/05/25 02:19:49;;;;;;;0.80;0.47;;;;;;;8.79;100.00;98813.31;10500266;28;20202;-74
2021/05/25 02:25:09;;;;;;;1.13;0.80;;;;;;;8.74;100.00;98814.47;10500777;28;20645;-77
2021/05/25 02:30:29;;;;;;;1.00;0.60;;;;;;;8.72;100.00;98807.06;10499806;28;20646;-73
2021/05/25 02:35:50;;;;;;;0.80;0.40;;;;;;;8.64;100.00;98811.00;10499076;28;20261;-73
2021/05/25 02:41:09;;;;;;;0.90;0.60;;;;;;;8.60;100.00;98810.19;10500678;28;20210;-77
2021/05/25 02:46:28;;;;;;;0.93;0.70;;;;;;;8.53;100.00;98821.16;10499980;28;20175;-76
2021/05/25 02:51:47;;;;;;;0.90;0.50;;;;;;;8.46;100.00;98821.16;10499249;28;20166;-76
2021/05/25 02:57:06;;;;;;;0.90;0.50;;;;;;;8.49;100.00;98831.31;10500429;28;20167;-77
2021/05/25 03:02:26;;;;;;;0.97;0.60;;;;;;;8.48;100.00;98827.81;10499656;28;20210;-76
2021/05/25 03:07:45;;;;;;;0.87;0.50;;;;;;;8.56;100.00;98834.09;10497627;28;20633;-75
2021/05/25 03:13:05;;;;;;;1.47;0.60;;;;;;;8.64;100.00;98830.94;10499768;28;20688;-74
2021/05/25 03:18:24;;;;;;;0.80;0.50;;;;;;;8.79;100.00;98833.31;10498410;28;20638;-75
2021/05/25 03:23:43;;;;;;;6.10;0.80;;;;;;;8.83;100.00;98831.31;10499456;28;20549;-74
2021/05/25 03:29:02;;;;;;;1.47;1.03;;;;;;;8.85;100.00;98833.66;10498782;28;20301;-73
2021/05/25 03:34:21;;;;;;;0.80;0.40;;;;;;;8.94;100.00;98837.59;10497692;28;20171;-75
2021/05/25 03:39:40;;;;;;;1.20;0.70;;;;;;;8.96;100.00;98831.69;10497410;28;20289;-73
2021/05/25 03:44:59;;;;;;;0.93;0.60;;;;;;;9.05;100.00;98835.59;10498501;28;20175;-74
2021/05/25 03:50:19;;;;;;;2.50;1.00;;;;;;;9.06;100.00;98842.66;10497217;28;20241;-74
2021/05/25 03:55:50;;;;;;;1.00;0.50;;;;;;;9.13;100.00;98850.09;10497288;28;20265;-75
2021/05/25 04:01:09;;;;;;;0.90;0.50;;;;;;;9.18;100.00;98858.72;10496742;28;20206;-74
2021/05/25 04:06:28;;;;;;;0.80;0.40;;;;;;;9.26;100.00;98851.22;10495616;28;20253;-75
2021/05/25 04:11:48;;;;;;;1.00;0.80;;;;;;;9.29;100.00;98855.94;10497812;28;20198;-73
2021/05/25 04:17:07;;;;;;;0.80;0.50;;;;;;;9.37;100.00;98869.25;10497588;28;20525;-76
2021/05/25 04:22:25;;;;;;;2.00;0.60;;;;;;;9.39;100.00;98883.34;10495621;28;20203;-73
2021/05/25 04:27:44;;;;;;;0.80;0.40;;;;;;;9.41;100.00;98889.25;10495828;28;20384;-77
2021/05/25 04:33:04;;;;;;;1.00;0.50;;;;;;;9.43;100.00;98906.13;10496403;28;20617;-75
2021/05/25 04:38:23;;;;;;;0.80;0.50;;;;;;;9.46;100.00;98905.31;10494923;28;20258;-74
2021/05/25 04:43:41;;;;;;;0.80;0.50;;;;;;;9.41;100.00;98910.44;10497207;28;20641;-73
2021/05/25 04:49:00;;;;;;;0.80;0.40;;;;;;;9.47;100.00;98901.38;10494971;28;20170;-76
2021/05/25 04:54:19;;;;;;;0.90;0.60;;;;;;;9.50;100.00;98906.09;10496922;28;20183;-76
2021/05/25 04:59:38;;;;;;;1.00;0.67;;;;;;;9.52;100.00;98893.53;10495544;28;20214;-75
2021/05/25 05:04:57;;;;;;;0.80;0.40;;;;;;;9.53;100.00;98899.78;10495318;28;20178;-74
2021/05/25 05:10:17;;;;;;;1.00;0.80;;;;;;;9.60;100.00;98905.28;10495546;28;20443;-74
2021/05/25 05:15:37;;;;;;;0.80;0.43;;;;;;;9.56;100.00;98907.25;10496401;28;20528;-76
2021/05/25 05:20:56;;;;;;;0.80;0.40;;;;;;;9.52;100.00;98915.50;10494513;28;20293;-74
2021/05/25 05:26:16;;;;;;;0.90;0.77;;;;;;;9.62;98.22;98909.19;10465961;28;20269;-74
2021/05/25 05:31:35;;;;;;;1.00;0.57;;;;;;;9.71;94.64;98917.00;10458798;28;20678;-75
2021/05/25 05:36:54;;;;;;;1.00;0.57;;;;;;;9.57;97.38;98917.81;10466044;28;20215;-75
2021/05/25 05:42:14;;;;;;;0.90;0.50;;;;;;;9.52;95.25;98915.50;10457607;28;20203;-74
2021/05/25 05:47:33;;;;;;;0.80;0.40;;;;;;;9.70;92.89;98909.94;10461977;28;20183;-74
2021/05/25 05:52:52;;;;;;;0.93;0.60;;;;;;;9.66;90.83;98915.44;10459298;28;20179;-76
2021/05/25 05:58:11;;;;;;;1.10;0.87;;;;;;;9.76;88.59;98922.09;10472411;28;20590;-75
2021/05/25 06:03:30;;;;;;;8.10;0.80;;;;;;;9.85;85.40;98916.97;10460219;28;20172;-74
2021/05/25 06:08:49;;;;;;;0.90;0.60;;;;;;;9.88;82.63;98918.91;10460070;28;20563;-73
2021/05/25 06:14:08;;;;;;;6.63;0.80;;;;;;;9.85;84.55;98925.22;10460843;28;20179;-74
2021/05/25 06:19:27;;;;;;;0.80;0.40;;;;;;;9.89;82.04;98928.72;10458227;28;20203;-77
2021/05/25 06:24:46;;;;;;;0.97;0.87;;;;;;;10.00;82.41;98932.25;10460573;28;20199;-75
2021/05/25 06:30:08;;;;;;;0.90;0.50;;;;;;;10.04;81.01;98924.75;10459610;28;20313;-74
2021/05/25 06:35:27;;;;;;;0.90;0.50;;;;;;;10.10;79.75;98928.66;10458762;28;20187;-73
2021/05/25 06:40:46;;;;;;;0.90;0.50;;;;;;;10.27;78.63;98933.28;10458264;28;20203;-74
2021/05/25 06:46:07;;;;;;;0.80;0.47;;;;;;;10.55;77.33;98918.22;10458702;28;20187;-75
2021/05/25 06:51:26;;;;;;;0.80;0.40;;;;;;;10.45;76.00;98932.81;10457832;28;20176;-75
2021/05/25 06:56:45;;;;;;;0.80;0.47;;;;;;;10.64;76.12;98940.56;10459180;28;20179;-74
2021/05/25 07:02:05;;;;;;;0.90;0.50;;;;;;;10.57;76.40;98942.56;10459939;28;20661;-73
2021/05/25 07:07:24;;;;;;;0.80;0.40;;;;;;;10.65;77.37;98950.38;10466961;28;20187;-74
2021/05/25 07:12:43;;;;;;;0.80;0.50;;;;;;;10.68;76.88;98946.03;10458381;28;20191;-73
2021/05/25 07:18:02;;;;;;;1.17;0.50;;;;;;;10.41;78.86;98956.81;10457124;28;20662;-75
2021/05/25 07:23:21;;;;;;;2.70;1.53;;;;;;;10.33;82.02;98968.22;10455816;28;20168;-73
2021/05/25 07:28:40;;;;;;;0.90;0.50;;;;;;;10.03;85.25;98978.16;10457420;28;20219;-74
2021/05/25 07:33:59;;;;;;;0.90;0.50;;;;;;;10.17;84.41;98967.91;10455476;28;20175;-76
2021/05/25 07:39:18;;;;;;;1.00;0.50;;;;;;;10.32;82.61;98970.19;10468476;28;20227;-75
2021/05/25 07:44:37;;;;;;;0.90;0.60;;;;;;;10.48;79.57;98967.75;10455999;28;20179;-74
2021/05/25 07:49:56;;;;;;;0.90;0.70;;;;;;;10.40;80.04;98965.44;10455212;28;20175;-73
2021/05/25 07:55:17;;;;;;;0.90;0.70;;;;;;;10.64;79.30;98981.81;10456987;28;20199;-75
2021/05/25 08:00:36;;;;;;;0.90;0.70;;;;;;;10.28;82.55;98973.34;10456432;28;20199;-75
2021/05/25 08:05:57;;;;;;;1.10;0.73;;;;;;;9.71;94.49;98980.97;10468937;28;20191;-73
2021/05/25 08:11:16;;;;;;;2.13;1.13;;;;;;;9.29;100.00;98999.44;10458303;28;20207;-74
2021/05/25 08:16:38;;;;;;;1.00;0.73;;;;;;;9.18;100.00;99009.66;10480303;28;20190;-75
2021/05/25 08:21:57;;;;;;;0.90;0.50;;;;;;;9.07;100.00;99024.56;10496025;28;20207;-77
2021/05/25 08:27:16;;;;;;;0.90;0.50;;;;;;;8.96;100.00;99019.06;10497283;28;20309;-80
2021/05/25 08:32:36;;;;;;;0.90;0.50;;;;;;;9.14;100.00;99019.84;10496425;28;20174;-78
2021/05/25 08:37:59;;;;;;;0.83;0.47;;;;;;;9.31;100.00;99018.28;10496128;28;20182;-77
2021/05/25 08:43:18;;;;;;;1.40;1.23;;;;;;;9.81;100.00;99010.38;10497122;28;20178;-77
2021/05/25 08:48:41;;;;;;;1.20;0.70;;;;;;;9.96;100.00;99011.13;10477207;28;20195;-77
2021/05/25 08:54:00;;;;;;;0.90;0.50;;;;;;;9.81;100.00;99015.09;10454311;28;20180;-76
2021/05/25 08:59:19;;;;;;;1.10;0.70;;;;;;;9.66;100.00;99028.06;10454257;28;20206;-76
2021/05/25 09:05:01;;;;;;;1.10;0.80;;;;;;;9.50;100.00;99024.16;10454087;28;20192;-77
2021/05/25 09:10:32;;;;;;;0.87;0.53;;;;;;;9.49;100.00;99025.34;10455175;28;20211;-75
2021/05/25 09:15:58;;;;;;;1.10;0.70;;;;;;;9.73;100.00;99033.53;10458229;28;20188;-75
2021/05/25 09:21:31;;;;;;;3.47;0.80;;;;;;;9.63;100.00;99030.81;10477801;28;20676;-75
2021/05/25 09:26:57;;;;;;;0.80;0.50;;;;;;;9.54;100.00;99030.44;10447641;28;20690;-78
2021/05/25 09:32:17;;;;;;;0.80;0.40;;;;;;;9.78;100.00;99035.09;10462494;28;20184;-77
2021/05/25 09:37:46;;;;;;;0.80;0.47;;;;;;;9.96;100.00;99030.38;10461098;28;20587;-80
2021/05/25 09:43:13;;;;;;;0.90;0.50;;;;;;;9.86;100.00;99028.41;10461163;28;20191;-79
2021/05/25 09:48:41;;;;;;;1.30;0.80;;;;;;;9.96;100.00;99044.91;10460689;28;20180;-76
2021/05/25 09:54:02;;;;;;;0.90;0.60;;;;;;;10.08;100.00;99040.97;10464482;28;20187;-79
2021/05/25 09:59:35;;;;;;;0.80;0.40;;;;;;;10.00;100.00;99055.91;10469897;28;20215;-79
2021/05/25 10:05:04;;;;;;;0.80;0.40;;;;;;;9.88;100.00;99059.84;10459155;28;20176;-81
2021/05/25 10:10:24;;;;;;;0.90;0.60;;;;;;;9.99;100.00;99062.59;10461152;28;20195;-81
2021/05/25 10:15:46;;;;;;;0.90;0.57;;;;;;;9.91;100.00;99061.00;10460705;28;20188;-80
2021/05/25 10:21:07;;;;;;;1.77;1.17;;;;;;;10.27;100.00;99065.25;10458064;28;20584;-78
2021/05/25 10:26:28;;;;;;;0.80;0.50;;;;;;;10.72;100.00;99062.34;10459807;28;20171;-80
2021/05/25 10:31:56;;;;;;;0.80;0.40;;;;;;;10.39;100.00;99063.66;10471723;28;20274;-80
2021/05/25 10:37:15;;;;;;;0.80;0.47;;;;;;;10.09;100.00;99086.53;10457854;28;20191;-79
2021/05/25 10:42:35;;;;;;;0.90;0.60;;;;;;;10.00;100.00;99073.19;10457998;28;20203;-77
2021/05/25 10:48:04;;;;;;;0.90;0.50;;;;;;;9.75;100.00;99085.34;10459693;28;20183;-74
2021/05/25 10:53:25;;;;;;;0.80;0.40;;;;;;;9.66;100.00;99069.25;10458012;28;20559;-76
2021/05/25 10:58:59;;;;;;;2.90;0.80;;;;;;;10.34;100.00;99077.03;10458003;28;20285;-77
2021/05/25 11:04:23;;;;;;;1.33;1.23;;;;;;;10.83;100.00;99094.13;10495352;28;20645;-77
2021/05/25 11:09:42;;;;;;;0.80;0.40;;;;;;;10.72;100.00;99079.63;10499398;28;20678;-76
2021/05/25 11:15:16;;;;;;;1.97;1.20;;;;;;;11.95;100.00;99074.84;10493354;28;20183;-76
2021/05/25 11:20:53;;;;;;;0.80;0.50;;;;;;;11.82;100.00;99089.53;10493497;28;20242;-76
2021/05/25 11:26:51;;;;;;;1.00;0.80;;;;;;;11.80;99.02;99070.66;10482769;28;20179;-75
2021/05/25 11:32:13;;;;;;;1.10;0.80;;;;;;;11.88;100.00;99098.94;10457862;28;20180;-74
2021/05/25 11:37:35;;;;;;;0.90;0.50;;;;;;;12.72;92.52;99063.75;10455468;28;20167;-76
2021/05/25 11:42:55;;;;;;;0.90;0.50;;;;;;;12.69;86.58;99072.84;10457537;28;20176;-75
2021/05/25 11:48:23;;;;;;;0.93;0.50;;;;;;;12.91;81.32;99088.00;10457347;28;20179;-76
2021/05/25 11:53:42;;;;;;;0.80;0.50;;;;;;;12.52;78.34;99051.00;10456836;28;20226;-75
2021/05/25 11:59:01;;;;;;;1.00;0.70;;;;;;;12.64;82.18;99069.78;10456805;28;20215;-76
2021/05/25 12:04:21;;;;;;;0.90;0.53;;;;;;;12.82;78.31;99071.13;10455498;28;20257;-74
2021/05/25 12:09:42;;;;;;;1.20;0.60;;;;;;;13.13;73.86;99058.88;10456545;28;20199;-76
2021/05/25 12:15:25;;;;;;;1.47;0.87;;;;;;;12.82;75.08;99065.59;10456457;28;20179;-78
2021/05/25 12:20:50;;;;;;;1.67;0.80;;;;;;;12.98;80.47;99072.09;10453551;28;20211;-78
2021/05/25 12:26:11;;;;;;;1.00;0.70;;;;;;;12.58;77.46;99101.75;10467553;28;20190;-76
2021/05/25 12:31:31;;;;;;;0.97;0.70;;;;;;;12.66;77.14;99084.72;10455990;28;20191;-76
2021/05/25 12:36:55;;;;;;;1.00;0.77;;;;;;;12.73;81.70;99085.41;10454741;28;20176;-76
2021/05/25 12:42:16;;;;;;;0.90;0.60;;;;;;;12.25;81.55;99119.06;10455157;28;20211;-79
2021/05/25 12:47:49;;;;;;;2.30;1.03;;;;;;;11.62;88.11;99108.59;10455722;28;20178;-75
2021/05/25 12:53:12;;;;;;;1.00;0.73;;;;;;;11.77;88.81;99114.81;10461841;28;20187;-74
2021/05/25 12:58:44;;;;;;;1.10;0.80;;;;;;;11.67;90.94;99123.91;10463778;28;20211;-74
2021/05/25 13:04:03;;;;;;;1.37;1.00;;;;;;;11.42;93.23;99126.84;10462415;28;20583;-78
2021/05/25 13:09:27;;;;;;;1.13;0.80;;;;;;;11.36;92.17;99117.41;10463514;28;20207;-77
2021/05/25 13:14:47;;;;;;;2.00;1.17;;;;;;;11.51;95.54;99118.88;10462110;28;20179;-80
2021/05/25 13:20:18;;;;;;;1.20;0.70;;;;;;;11.23;100.00;99162.34;10460497;28;20238;-79
2021/05/25 13:25:37;;;;;;;1.00;0.70;;;;;;;10.69;100.00;99179.47;10462725;28;20183;-77
2021/05/25 13:30:56;;;;;;;1.87;1.00;;;;;;;9.93;100.00;99163.06;10462153;28;20223;-80
2021/05/25 13:36:17;;;;;;;2.03;0.80;;;;;;;9.68;100.00;99193.25;10446250;28;20175;-84
2021/05/25 13:41:37;;;;;;;1.23;0.80;;;;;;;9.37;100.00;99192.41;10461827;28;20210;-81
2021/05/25 13:46:56;;;;;;;1.03;0.63;;;;;;;9.04;100.00;99209.97;10461066;28;20183;-80
2021/05/25 13:52:15;;;;;;;1.40;0.83;;;;;;;8.97;100.00;99178.97;10460863;28;20630;-85
2021/05/25 13:57:35;;;;;;;1.10;0.70;;;;;;;9.75;100.00;99146.56;10461989;28;20172;-79
2021/05/25 14:02:54;;;;;;;3.47;0.70;;;;;;;11.45;100.00;99144.53;10460383;28;20252;-81
2021/05/25 14:08:13;;;;;;;0.90;0.60;;;;;;;12.25;100.00;99136.41;10460696;28;20196;-80
2021/05/25 14:13:32;;;;;;;0.90;0.60;;;;;;;12.56;100.00;99124.25;10461606;28;20645;-79
2021/05/25 14:18:51;;;;;;;0.90;0.53;;;;;;;12.91;100.00;99123.88;10459335;28;20199;-77
2021/05/25 14:24:10;;;;;;;0.90;0.60;;;;;;;11.92;100.00;99143.81;10459828;28;20168;-77
2021/05/25 14:29:29;;;;;;;1.30;0.70;;;;;;;11.05;100.00;99161.66;10458944;28;20223;-77
2021/05/25 14:34:48;;;;;;;1.10;0.70;;;;;;;11.22;100.00;99134.03;10458102;28;20225;-76
2021/05/25 14:40:08;;;;;;;1.20;0.70;;;;;;;11.66;100.00;99138.88;10458825;28;20211;-77
2021/05/25 14:45:27;;;;;;;1.10;0.70;;;;;;;11.86;100.00;99137.94;10459007;28;20179;-76
2021/05/25 14:50:47;;;;;;;1.13;0.63;;;;;;;11.81;100.00;99126.56;10457282;28;20206;-76
2021/05/25 15:01:26;;;;;;;0.90;0.60;;;;;;;11.74;100.00;99163.25;10458790;28;20195;-80
2021/05/25 15:06:51;;;;;;;2.80;1.00;;;;;;;11.42;100.00;99162.66;10457069;28;20199;-82
2021/05/25 15:12:10;;;;;;;0.93;0.70;;;;;;;11.12;100.00;99150.63;10458767;28;20167;-77
2021/05/25 15:17:29;;;;;;;1.63;1.20;;;;;;;11.09;100.00;99139.63;10457403;28;20250;-82
2021/05/25 15:22:49;;;;;;;0.90;0.50;;;;;;;11.85;100.00;99139.13;10456355;28;20215;-81
2021/05/25 15:28:09;;;;;;;1.10;0.90;;;;;;;12.52;100.00;99133.78;10456840;28;20231;-79
2021/05/25 15:33:29;;;;;;;1.00;0.70;;;;;;;12.44;100.00;99135.81;10457975;28;20176;-78
2021/05/25 15:38:48;;;;;;;1.20;0.77;;;;;;;12.40;100.00;99126.81;10457613;28;20203;-78
2021/05/25 15:44:07;;;;;;;0.97;0.70;;;;;;;12.32;100.00;99124.50;10456541;28;20630;-79
2021/05/25 15:49:26;;;;;;;2.50;1.47;;;;;;;12.51;100.00;99119.22;10456071;28;20168;-78
2021/05/25 15:54:45;;;;;;;1.83;0.70;;;;;;;12.70;98.65;99104.78;10457156;28;20250;-79
2021/05/25 16:00:05;;;;;;;1.73;1.47;;;;;;;13.41;94.01;99095.16;10456477;28;20207;-78
2021/05/25 16:05:25;;;;;;;1.00;0.70;;;;;;;13.71;85.16;99104.16;10454419;28;20207;-75
2021/05/25 16:10:44;;;;;;;1.97;0.80;;;;;;;13.91;83.36;99105.00;10455503;28;20626;-75
2021/05/25 16:16:03;;;;;;;2.40;1.00;;;;;;;15.35;82.07;99092.72;10456444;28;20167;-78
2021/05/25 16:21:22;;;;;;;6.33;1.80;;;;;;;16.32;75.41;99089.50;10454656;28;20203;-76
2021/05/25 16:26:41;;;;;;;1.10;0.70;;;;;;;15.38;76.66;99081.53;10454527;28;20693;-77
2021/05/25 16:32:02;;;;;;;1.00;0.70;;;;;;;14.70;77.76;99074.31;10456008;28;20187;-74
2021/05/25 16:37:22;;;;;;;1.13;0.80;;;;;;;13.82;81.74;99079.88;10454591;28;20653;-74
2021/05/25 16:42:41;;;;;;;2.10;1.20;;;;;;;13.68;79.10;99102.22;10455263;28;20202;-75
2021/05/25 16:48:00;;;;;;;0.93;0.60;;;;;;;13.01;77.21;99095.34;10455606;28;20256;-74
2021/05/25 16:53:18;;;;;;;1.23;1.00;;;;;;;12.58;82.43;99080.50;10454428;28;20187;-75
2021/05/25 16:58:38;;;;;;;2.70;0.80;;;;;;;12.40;86.90;99093.69;10455376;28;20199;-75
2021/05/25 17:20:40;;;;;;;1.47;1.37;;;;;;;12.75;89.67;99104.34;10453580;28;20286;-76
2021/05/25 17:31:38;;;;;;;1.00;0.80;;;;;;;12.16;73.53;99158.16;10454145;28;20633;-74
2021/05/25 17:37:03;;;;;;;1.20;0.80;;;;;;;11.57;79.56;99155.09;10456566;28;20254;-74
2021/05/25 17:42:23;;;;;;;0.87;0.53;;;;;;;11.11;84.71;99182.06;10461606;28;20203;-73
2021/05/25 17:47:42;;;;;;;1.10;0.60;;;;;;;11.00;88.89;99192.34;10462042;28;20246;-73
2021/05/25 17:53:01;;;;;;;0.90;0.50;;;;;;;10.79;91.86;99202.63;10460435;28;20163;-73
2021/05/25 17:58:20;;;;;;;1.20;0.53;;;;;;;10.39;93.43;99217.66;10461801;28;20191;-73
2021/05/25 18:03:40;;;;;;;0.93;0.57;;;;;;;10.34;98.39;99222.75;10459345;28;20192;-73
2021/05/25 18:09:00;;;;;;;1.40;1.10;;;;;;;10.12;100.00;99223.16;10460194;28;20188;-74
2021/05/25 18:14:19;;;;;;;0.90;0.50;;;;;;;9.85;100.00;99227.44;10461167;28;20207;-73
2021/05/25 18:19:39;;;;;;;0.93;0.60;;;;;;;9.70;100.00;99236.81;10459353;28;20202;-73
2021/05/25 18:24:58;;;;;;;1.00;0.70;;;;;;;9.55;100.00;99236.03;10460820;28;20172;-72
2021/05/25 18:30:18;;;;;;;1.70;1.40;;;;;;;9.48;100.00;99237.94;10459941;28;20219;-74
2021/05/25 18:35:45;;;;;;;5.00;0.80;;;;;;;9.36;100.00;99221.84;10459111;28;20175;-75
2021/05/25 18:46:42;;;;;;;0.97;0.63;;;;;;;9.26;100.00;99228.06;10459469;28;20180;-78
2021/05/25 18:52:01;;;;;;;0.90;0.60;;;;;;;9.37;100.00;99212.41;10458514;28;20167;-79
2021/05/25 18:57:28;;;;;;;1.10;0.73;;;;;;;9.39;100.00;99212.81;10458451;28;20557;-75
2021/05/25 19:02:47;;;;;;;2.70;1.17;;;;;;;9.40;100.00;99208.91;10457679;28;20203;-79
2021/05/25 19:08:06;;;;;;;1.03;0.93;;;;;;;9.49;100.00;99228.53;10457473;28;20277;-78
2021/05/25 19:13:26;;;;;;;0.90;0.50;;;;;;;9.61;100.00;99220.72;10457823;28;20171;-77
2021/05/25 19:18:46;;;;;;;1.83;1.73;;;;;;;9.58;100.00;99221.50;10457146;28;20580;-77
2021/05/25 19:24:23;;;;;;;0.97;0.67;;;;;;;9.59;100.00;99211.31;10457447;28;20183;-76
2021/05/25 19:29:41;;;;;;;0.80;0.50;;;;;;;9.49;100.00;99214.81;10456605;28;20219;-75
2021/05/25 19:35:00;;;;;;;2.50;1.33;;;;;;;9.54;100.00;99225.41;10456526;28;20183;-80
2021/05/25 19:40:21;;;;;;;2.80;2.60;;;;;;;9.44;100.00;99215.19;10457450;28;20207;-75
2021/05/25 19:45:40;;;;;;;1.20;0.70;;;;;;;9.44;100.00;99217.94;10456501;28;20258;-76
2021/05/25 19:51:02;;;;;;;1.10;0.90;;;;;;;9.48;100.00;99220.69;10456243;28;20597;-75
2021/05/25 19:56:21;;;;;;;7.33;1.57;;;;;;;9.43;100.00;99224.59;10456185;28;20594;-75
2021/05/25 20:01:41;;;;;;;2.27;2.00;;;;;;;9.45;100.00;99227.72;10454670;28;20210;-76
2021/05/25 20:07:00;;;;;;;1.27;1.10;;;;;;;9.42;100.00;99227.72;10455468;28;20590;-76
2021/05/25 20:12:19;;;;;;;0.90;0.60;;;;;;;9.33;100.00;99230.84;10456470;28;20480;-73
2021/05/25 20:17:38;;;;;;;1.10;0.70;;;;;;;9.25;100.00;99240.22;10455360;28;20199;-74
2021/05/25 20:22:57;;;;;;;0.90;0.60;;;;;;;9.15;100.00;99234.69;10453247;28;20693;-78
2021/05/25 20:28:17;;;;;;;4.60;1.10;;;;;;;9.12;100.00;99229.97;10454887;28;20625;-79
2021/05/25 20:38:56;;;;;;;1.00;0.70;;;;;;;9.01;100.00;99242.84;10455351;28;20256;-77
2021/05/25 20:44:15;;;;;;;0.90;0.60;;;;;;;9.05;100.00;99221.72;10454863;28;20179;-77
2021/05/25 20:49:34;;;;;;;0.80;0.53;;;;;;;9.07;100.00;99222.91;10453315;28;20301;-77
2021/05/25 20:54:53;;;;;;;1.27;1.17;;;;;;;9.08;100.00;99242.91;10468861;28;20650;-76
2021/05/25 21:00:16;;;;;;;1.13;0.90;;;;;;;9.02;100.00;99249.91;10453917;28;20233;-77
2021/05/25 21:05:35;;;;;;;0.90;0.63;;;;;;;9.03;100.00;99248.75;10454162;28;20195;-77
2021/05/25 21:10:54;;;;;;;6.23;1.30;;;;;;;9.03;100.00;99251.50;10457519;28;20188;-77
2021/05/25 21:16:13;;;;;;;1.17;0.90;;;;;;;9.10;100.00;99241.34;10463472;28;20176;-76
2021/05/25 21:21:32;;;;;;;1.03;0.73;;;;;;;9.17;100.00;99232.34;10461500;28;20203;-78
2021/05/25 21:26:51;;;;;;;1.13;0.67;;;;;;;9.25;100.00;99236.72;10462876;28;20223;-76
2021/05/25 21:32:10;;;;;;;3.73;2.50;;;;;;;9.29;100.00;99227.28;10462724;28;20179;-80
2021/05/25 21:37:30;;;;;;;1.10;0.77;;;;;;;9.36;100.00;99219.09;10460422;28;20183;-76
2021/05/25 21:42:49;;;;;;;1.00;0.70;;;;;;;9.37;100.00;99220.66;10461791;28;20206;-76
2021/05/25 21:48:08;;;;;;;1.00;0.83;;;;;;;9.39;100.00;99220.28;10462068;28;20179;-80
2021/05/25 21:53:27;;;;;;;0.90;0.60;;;;;;;9.40;100.00;99217.13;10445533;28;20692;-78
2021/05/25 21:58:46;;;;;;;0.90;0.50;;;;;;;9.42;100.00;99212.03;10461763;28;20207;-76
2021/05/25 22:04:08;;;;;;;1.00;0.70;;;;;;;9.40;100.00;99211.66;10460217;28;20623;-80
2021/05/25 22:09:27;;;;;;;1.67;0.70;;;;;;;9.43;100.00;99188.09;10461365;28;20175;-78
2021/05/25 22:14:47;;;;;;;0.90;0.63;;;;;;;9.44;100.00;99189.69;10461190;28;20171;-75
2021/05/25 22:20:07;;;;;;;0.90;0.60;;;;;;;9.39;100.00;99188.09;10459387;28;20214;-77
2021/05/25 22:25:26;;;;;;;0.80;0.40;;;;;;;9.42;100.00;99190.09;10459056;28;20183;-75
2021/05/25 22:30:45;;;;;;;1.10;0.50;;;;;;;9.38;100.00;99197.50;10459994;28;20222;-76
2021/05/25 22:36:05;;;;;;;0.97;0.70;;;;;;;9.31;100.00;99188.50;10458086;28;20175;-78
2021/05/25 22:41:25;;;;;;;1.10;0.80;;;;;;;9.27;100.00;99180.25;10459960;28;20261;-76
2021/05/25 22:46:44;;;;;;;1.00;0.50;;;;;;;9.35;100.00;99181.84;10458968;28;20183;-75
2021/05/25 22:52:03;;;;;;;1.30;0.60;;;;;;;9.28;100.00;99184.56;10457233;28;20180;-77
2021/05/25 22:57:21;;;;;;;1.00;0.80;;;;;;;9.31;100.00;99189.25;10459451;28;20685;-76
2021/05/25 23:02:40;;;;;;;0.90;0.60;;;;;;;9.34;100.00;99182.19;10458733;28;20211;-77
2021/05/25 23:07:59;;;;;;;0.90;0.50;;;;;;;9.36;100.00;99177.13;10456773;28;20532;-79
2021/05/25 23:13:18;;;;;;;0.90;0.60;;;;;;;9.35;100.00;99170.84;10457899;28;20258;-76
2021/05/25 23:18:37;;;;;;;0.90;0.60;;;;;;;9.24;100.00;99170.03;10457697;28;20172;-78
2021/05/25 23:23:56;;;;;;;1.43;1.33;;;;;;;9.28;100.00;99164.53;10458390;28;20183;-79
2021/05/25 23:29:15;;;;;;;4.10;1.63;;;;;;;9.35;100.00;99168.09;10456864;28;20600;-75
2021/05/25 23:34:37;;;;;;;1.00;0.80;;;;;;;9.37;100.00;99171.22;10454687;28;20175;-79
2021/05/25 23:39:56;;;;;;;0.93;0.77;;;;;;;9.36;100.00;99161.44;10456555;28;20570;-78
2021/05/25 23:45:15;;;;;;;8.13;1.27;;;;;;;9.33;100.00;99164.97;10456534;28;20171;-78
2021/05/25 23:50:34;;;;;;;1.17;0.70;;;;;;;9.32;100.00;99157.13;10456100;28;20168;-77
2021/05/25 23:55:53;;;;;;;0.90;0.70;;;;;;;9.27;100.00;99158.28;10456101;28;20183;-78
